createdAt,value
2022-09-15T00:01:10.548Z,55.30
2022-09-15T00:03:37.822Z,55.18
2022-09-15T00:06:05.802Z,55.04
2022-09-15T00:08:32.850Z,55.71
2022-09-15T00:11:12.590Z,55.21
2022-09-15T00:13:40.148Z,55.27
2022-09-15T00:16:08.659Z,55.20
2022-09-15T00:18:37.708Z,55.70
2022-09-15T00:21:12.265Z,55.54
2022-09-15T00:23:39.399Z,55.67
2022-09-15T00:26:09.725Z,55.59
2022-09-15T00:28:37.610Z,55.70
2022-09-15T00:31:14.339Z,55.97
2022-09-15T00:33:41.945Z,55.75
2022-09-15T00:36:12.039Z,55.95
2022-09-15T00:38:39.697Z,56.19
2022-09-15T00:41:09.627Z,56.27
2022-09-15T00:44:00.285Z,56.37
2022-09-15T00:46:40.025Z,55.96
2022-09-15T00:49:20.172Z,56.26
2022-09-15T00:51:52.118Z,56.08
2022-09-15T00:54:31.758Z,56.64
2022-09-15T00:57:03.597Z,56.05
2022-09-15T00:59:33.888Z,56.36
2022-09-15T01:02:25.807Z,56.26
2022-09-15T01:04:58.183Z,56.44
2022-09-15T01:07:34.882Z,56.65
2022-09-15T01:10:17.963Z,57.00
2022-09-15T01:12:44.913Z,56.43
2022-09-15T01:15:12.062Z,56.48
2022-09-15T01:18:08.860Z,57.06
2022-09-15T01:21:25.327Z,57.08
2022-09-15T01:24:43.303Z,56.71
2022-09-15T01:27:43.036Z,56.80
2022-09-15T01:30:15.678Z,56.86
2022-09-15T01:33:09.104Z,56.68
2022-09-15T01:36:19.005Z,56.69
2022-09-15T01:39:07.832Z,57.00
2022-09-15T01:42:04.340Z,56.83
2022-09-15T01:44:53.044Z,56.86
2022-09-15T01:47:21.180Z,57.14
2022-09-15T01:49:55.841Z,56.88
2022-09-15T01:52:24.296Z,56.66
2022-09-15T01:54:56.453Z,56.95
2022-09-15T01:57:23.643Z,56.94
2022-09-15T01:59:52.554Z,57.19
2022-09-15T02:02:33.145Z,56.71
2022-09-15T02:05:11.307Z,57.10
2022-09-15T02:08:05.056Z,56.84
2022-09-15T02:10:49.128Z,57.05
2022-09-15T02:13:48.614Z,57.14
2022-09-15T02:16:23.264Z,57.27
2022-09-15T02:19:15.166Z,56.80
2022-09-15T02:21:55.298Z,56.93
2022-09-15T02:24:35.519Z,57.38
2022-09-15T02:27:04.796Z,56.81
2022-09-15T02:29:33.853Z,56.98
2022-09-15T02:32:07.075Z,57.41
2022-09-15T02:34:40.753Z,57.26
2022-09-15T02:37:09.885Z,57.04
2022-09-15T02:39:42.853Z,57.32
2022-09-15T02:42:10.555Z,56.97
2022-09-15T02:44:37.582Z,57.25
2022-09-15T02:47:04.881Z,57.30
2022-09-15T02:49:31.754Z,57.61
2022-09-15T02:51:58.641Z,57.14
2022-09-15T02:54:25.507Z,57.29
2022-09-15T02:56:52.385Z,57.76
2022-09-15T02:59:19.258Z,57.14
2022-09-15T03:01:46.205Z,57.72
2022-09-15T03:04:13.123Z,57.26
2022-09-15T03:06:40.022Z,57.56
2022-09-15T03:09:08.494Z,57.54
2022-09-15T03:11:36.351Z,58.30
2022-09-15T03:14:06.429Z,58.11
2022-09-15T03:16:35.730Z,58.68
2022-09-15T03:19:03.317Z,59.21
2022-09-15T03:21:30.567Z,58.86
2022-09-15T03:23:58.812Z,59.05
2022-09-15T03:26:26.034Z,59.27
2022-09-15T03:28:53.496Z,59.59
2022-09-15T03:31:20.593Z,59.60
2022-09-15T03:33:48.184Z,59.16
2022-09-15T03:36:15.153Z,59.67
2022-09-15T03:38:42.073Z,59.25
2022-09-15T03:41:13.368Z,59.24
2022-09-15T03:43:41.425Z,59.78
2022-09-15T03:46:11.491Z,59.68
2022-09-15T03:48:40.456Z,59.19
2022-09-15T03:51:10.525Z,59.16
2022-09-15T03:53:40.277Z,59.17
2022-09-15T03:56:23.968Z,59.12
2022-09-15T03:58:51.969Z,59.63
2022-09-15T04:01:20.162Z,59.45
2022-09-15T04:03:51.178Z,59.70
2022-09-15T04:06:20.320Z,59.21
2022-09-15T04:08:48.243Z,59.46
2022-09-15T04:11:15.627Z,59.30
2022-09-15T04:13:43.855Z,59.27
2022-09-15T04:16:17.729Z,59.21
2022-09-15T04:18:45.702Z,59.47
2022-09-15T04:21:16.070Z,59.67
2022-09-15T04:23:43.675Z,59.59
2022-09-15T04:26:32.647Z,59.29
2022-09-15T04:29:04.536Z,59.82
2022-09-15T04:31:33.110Z,59.20
2022-09-15T04:34:00.156Z,59.71
2022-09-15T04:36:28.564Z,59.33
2022-09-15T04:38:56.858Z,59.30
2022-09-15T04:41:24.835Z,59.35
2022-09-15T04:43:52.011Z,59.14
2022-09-15T04:46:19.641Z,59.32
2022-09-15T04:48:48.038Z,59.24
2022-09-15T04:51:20.386Z,59.40
2022-09-15T04:53:47.780Z,59.31
2022-09-15T04:56:26.427Z,59.40
2022-09-15T04:59:02.447Z,59.62
2022-09-15T05:01:35.288Z,59.56
2022-09-15T05:04:04.457Z,59.29
2022-09-15T05:06:32.176Z,59.17
2022-09-15T05:08:59.650Z,59.30
2022-09-15T05:11:28.165Z,59.09
2022-09-15T05:13:55.550Z,59.22
2022-09-15T05:16:25.785Z,59.54
2022-09-15T05:18:58.467Z,59.55
2022-09-15T05:21:26.087Z,58.98
2022-09-15T05:23:53.377Z,59.20
2022-09-15T05:26:25.222Z,59.17
2022-09-15T05:28:52.105Z,58.85
2022-09-15T05:31:33.891Z,59.19
2022-09-15T05:34:05.512Z,58.71
2022-09-15T05:36:33.183Z,59.06
2022-09-15T05:39:01.666Z,58.95
2022-09-15T05:41:29.624Z,58.50
2022-09-15T05:43:57.772Z,58.77
2022-09-15T05:46:26.219Z,58.93
2022-09-15T05:48:55.724Z,58.49
2022-09-15T05:51:22.885Z,58.40
2022-09-15T05:53:50.853Z,58.78
2022-09-15T05:56:19.043Z,58.67
2022-09-15T05:58:48.096Z,58.17
2022-09-15T06:01:29.827Z,58.48
2022-09-15T06:03:58.048Z,58.24
2022-09-15T06:06:26.135Z,58.57
2022-09-15T06:08:58.588Z,58.39
2022-09-15T06:11:33.716Z,58.18
2022-09-15T06:14:06.102Z,57.87
2022-09-15T06:16:35.149Z,58.20
2022-09-15T06:19:03.435Z,58.46
2022-09-15T06:21:32.548Z,58.20
2022-09-15T06:24:03.431Z,58.21
2022-09-15T06:26:30.440Z,58.05
2022-09-15T06:29:00.767Z,57.89
2022-09-15T06:31:29.968Z,57.84
2022-09-15T06:33:57.891Z,57.89
2022-09-15T06:36:28.608Z,57.60
2022-09-15T06:38:56.448Z,56.98
2022-09-15T06:41:23.620Z,57.51
2022-09-15T06:43:50.756Z,57.25
2022-09-15T06:46:21.747Z,57.22
2022-09-15T06:48:49.459Z,57.34
2022-09-15T06:51:18.897Z,57.27
2022-09-15T06:53:46.841Z,56.58
2022-09-15T06:56:16.918Z,56.98
2022-09-15T06:58:45.032Z,56.75
2022-09-15T07:01:22.386Z,56.53
2022-09-15T07:03:49.852Z,56.47
2022-09-15T07:06:17.571Z,56.04
2022-09-15T07:08:46.573Z,56.38
2022-09-15T07:11:14.098Z,55.37
2022-09-15T07:13:41.152Z,55.44
2022-09-15T07:16:11.028Z,55.33
2022-09-15T07:18:42.877Z,54.91
2022-09-15T07:21:15.332Z,55.09
2022-09-15T07:23:43.203Z,54.56
2022-09-15T07:26:17.083Z,54.72
2022-09-15T07:28:48.020Z,54.22
2022-09-15T07:31:18.130Z,54.60
2022-09-15T07:33:45.870Z,54.26
2022-09-15T07:36:13.091Z,54.04
2022-09-15T07:38:43.848Z,53.96
2022-09-15T07:41:16.468Z,54.44
2022-09-15T07:43:48.548Z,54.77
2022-09-15T07:46:16.778Z,54.28
2022-09-15T07:48:49.444Z,54.00
2022-09-15T07:51:17.288Z,53.90
2022-09-15T07:53:45.969Z,54.04
2022-09-15T07:56:12.839Z,53.68
2022-09-15T07:58:39.955Z,53.39
2022-09-15T08:01:11.536Z,52.85
2022-09-15T08:03:48.861Z,52.67
2022-09-15T08:06:21.506Z,52.47
2022-09-15T08:08:49.088Z,52.50
2022-09-15T08:11:19.197Z,51.86
2022-09-15T08:13:52.314Z,50.96
2022-09-15T08:16:22.938Z,51.17
2022-09-15T08:18:52.912Z,51.32
2022-09-15T08:21:21.023Z,51.00
2022-09-15T08:23:56.624Z,50.96
2022-09-15T08:26:24.230Z,50.66
2022-09-15T08:28:51.693Z,50.43
2022-09-15T08:31:18.854Z,50.65
2022-09-15T08:33:51.664Z,50.47
2022-09-15T08:36:18.834Z,50.42
2022-09-15T08:38:46.637Z,50.17
2022-09-15T08:41:27.819Z,50.57
2022-09-15T08:44:20.256Z,50.03
2022-09-15T08:47:04.080Z,50.18
2022-09-15T08:49:51.055Z,50.06
2022-09-15T08:52:39.300Z,49.03
2022-09-15T08:55:19.210Z,49.02
2022-09-15T08:57:46.105Z,49.12
2022-09-15T09:00:17.109Z,49.67
2022-09-15T09:03:01.009Z,49.28
2022-09-15T09:06:08.723Z,48.95
2022-09-15T09:09:12.273Z,49.44
2022-09-15T09:12:12.624Z,49.61
2022-09-15T09:15:19.128Z,48.78
2022-09-15T09:18:22.401Z,48.61
2022-09-15T09:20:51.650Z,47.87
2022-09-15T09:23:24.746Z,47.54
2022-09-15T09:25:52.635Z,47.04
2022-09-15T09:28:34.866Z,47.62
2022-09-15T09:31:08.075Z,48.11
2022-09-15T09:33:47.713Z,48.04
2022-09-15T09:36:15.500Z,48.09
2022-09-15T09:38:45.718Z,48.32
2022-09-15T09:41:19.848Z,48.77
2022-09-15T09:43:49.062Z,48.49
2022-09-15T09:46:19.284Z,48.67
2022-09-15T09:49:20.986Z,47.89
2022-09-15T09:52:02.161Z,47.62
2022-09-15T09:54:31.603Z,47.27
2022-09-15T09:57:13.655Z,46.02
2022-09-15T09:59:46.757Z,46.28
2022-09-15T10:02:19.791Z,46.04
2022-09-15T10:04:52.112Z,46.35
2022-09-15T10:07:23.505Z,45.61
2022-09-15T10:09:59.838Z,45.75
2022-09-15T10:12:39.130Z,45.40
2022-09-15T10:15:26.646Z,45.47
2022-09-15T10:17:55.655Z,43.36
2022-09-15T10:20:35.560Z,42.85
2022-09-15T10:23:16.491Z,43.26
2022-09-15T10:25:58.586Z,43.54
2022-09-15T10:28:27.598Z,43.96
2022-09-15T10:31:28.648Z,44.14
2022-09-15T10:33:55.648Z,44.20
2022-09-15T10:36:32.332Z,43.32
2022-09-15T10:39:19.249Z,43.12
2022-09-15T10:42:07.713Z,43.61
2022-09-15T10:44:50.237Z,43.81
2022-09-15T10:48:07.060Z,43.19
2022-09-15T10:51:11.655Z,42.93
2022-09-15T10:53:56.754Z,42.33
2022-09-15T10:56:30.567Z,43.15
2022-09-15T10:59:45.912Z,43.44
2022-09-15T11:02:42.725Z,42.01
2022-09-15T11:05:30.997Z,42.06
2022-09-15T11:08:36.965Z,41.85
2022-09-15T11:11:37.154Z,41.68
2022-09-15T11:14:50.396Z,41.77
2022-09-15T11:17:45.159Z,41.66
2022-09-15T11:20:32.622Z,41.60
2022-09-15T11:23:14.753Z,41.29
2022-09-15T11:25:50.880Z,41.65
2022-09-15T11:28:26.797Z,41.59
2022-09-15T11:31:34.381Z,41.00
2022-09-15T11:34:16.400Z,40.97
2022-09-15T11:37:04.086Z,41.17
2022-09-15T11:39:37.620Z,41.70
2022-09-15T11:42:17.885Z,41.85
2022-09-15T11:44:46.381Z,41.95
2022-09-15T11:47:40.241Z,42.70
2022-09-15T11:50:42.075Z,42.63
2022-09-15T11:53:33.712Z,42.99
2022-09-15T11:56:15.656Z,42.75
2022-09-15T11:59:21.327Z,43.00
2022-09-15T12:02:19.346Z,42.97
2022-09-15T12:05:10.469Z,41.84
2022-09-15T12:07:49.090Z,41.04
2022-09-15T12:10:24.425Z,40.58
2022-09-15T12:12:53.832Z,40.86
2022-09-15T12:15:27.286Z,40.51
2022-09-15T12:18:21.370Z,40.00
2022-09-15T12:21:18.474Z,39.93
2022-09-15T12:24:14.663Z,40.95
2022-09-15T12:26:43.295Z,40.53
2022-09-15T12:29:41.174Z,40.50
2022-09-15T12:32:30.101Z,39.28
2022-09-15T12:35:02.759Z,39.67
2022-09-15T12:37:47.244Z,39.28
2022-09-15T12:40:40.174Z,39.36
2022-09-15T12:43:13.358Z,38.65
2022-09-15T12:45:43.415Z,39.28
2022-09-15T12:48:25.698Z,38.33
2022-09-15T12:51:03.159Z,38.56
2022-09-15T12:56:10.356Z,38.69
2022-09-15T12:58:47.747Z,38.39
2022-09-15T13:01:24.499Z,38.53
2022-09-15T13:03:53.693Z,38.42
2022-09-15T13:06:30.470Z,38.21
2022-09-15T13:09:03.785Z,37.75
2022-09-15T13:11:34.660Z,37.94
2022-09-15T13:14:06.617Z,38.25
2022-09-15T13:16:52.140Z,38.38
2022-09-15T13:19:33.601Z,38.70
2022-09-15T13:22:04.422Z,38.77
2022-09-15T13:25:08.523Z,38.12
2022-09-15T13:27:47.816Z,37.91
2022-09-15T13:30:54.822Z,37.88
2022-09-15T13:40:33.212Z,40.72
2022-09-15T13:43:28.461Z,41.40
2022-09-15T13:46:41.179Z,41.78
2022-09-15T13:49:51.487Z,41.82
2022-09-15T13:52:43.293Z,42.16
2022-09-15T13:55:27.916Z,42.14
2022-09-15T14:00:53.894Z,42.08
2022-09-15T14:03:42.658Z,42.13
2022-09-15T14:06:23.982Z,41.88
2022-09-15T14:08:55.993Z,41.09
2022-09-15T14:11:32.557Z,40.86
2022-09-15T14:14:00.904Z,40.51
2022-09-15T14:16:30.689Z,40.82
2022-09-15T14:19:00.008Z,40.86
2022-09-15T14:21:31.953Z,40.86
2022-09-15T14:24:06.228Z,40.83
2022-09-15T14:26:35.862Z,40.62
2022-09-15T14:29:06.206Z,40.74
2022-09-15T14:31:43.812Z,40.48
2022-09-15T14:34:24.496Z,40.77
2022-09-15T14:37:01.385Z,41.20
2022-09-15T14:39:29.178Z,41.84
2022-09-15T14:41:56.461Z,42.07
2022-09-15T14:47:28.545Z,42.57
2022-09-15T14:50:19.671Z,42.34
2022-09-15T14:53:05.782Z,42.14
2022-09-15T14:55:55.572Z,41.40
2022-09-15T14:58:35.507Z,41.50
2022-09-15T15:01:25.440Z,41.77
2022-09-15T15:03:58.063Z,41.50
2022-09-15T15:06:39.486Z,41.06
2022-09-15T15:09:31.300Z,41.11
2022-09-15T15:12:10.003Z,41.22
2022-09-15T15:14:37.025Z,41.50
2022-09-15T15:17:08.488Z,41.39
2022-09-15T15:19:40.295Z,42.19
2022-09-15T15:22:20.762Z,43.43
2022-09-15T15:24:51.268Z,44.65
2022-09-15T15:27:33.323Z,45.62
2022-09-15T15:30:40.446Z,46.06
2022-09-15T15:33:21.045Z,46.60
2022-09-15T15:36:02.296Z,47.09
2022-09-15T15:38:33.514Z,47.25
2022-09-15T15:41:06.280Z,46.98
2022-09-15T15:43:34.304Z,47.25
2022-09-15T15:46:04.858Z,46.77
2022-09-15T15:48:38.433Z,46.61
2022-09-15T15:51:07.381Z,46.78
2022-09-15T15:53:34.441Z,46.61
2022-09-15T15:56:01.396Z,46.80
2022-09-15T15:58:28.584Z,46.68
2022-09-15T16:00:56.943Z,46.70
2022-09-15T16:03:24.992Z,46.32
2022-09-15T16:05:57.111Z,45.91
2022-09-15T16:08:34.785Z,45.62
2022-09-15T16:11:03.217Z,45.79
2022-09-15T16:13:30.268Z,45.39
2022-09-15T16:16:00.444Z,45.96
2022-09-15T16:18:28.773Z,46.13
2022-09-15T16:20:55.641Z,46.64
2022-09-15T16:23:23.566Z,46.49
2022-09-15T16:26:05.510Z,46.79
2022-09-15T16:28:32.391Z,46.55
2022-09-15T16:30:59.599Z,46.72
2022-09-15T16:33:26.802Z,46.55
2022-09-15T16:36:06.717Z,46.59
2022-09-15T16:38:35.671Z,46.76
2022-09-15T16:41:04.396Z,46.46
2022-09-15T16:43:31.556Z,46.29
2022-09-15T16:45:58.441Z,46.17
2022-09-15T16:48:25.510Z,45.81
2022-09-15T16:53:40.059Z,45.66
2022-09-15T16:56:11.269Z,45.78
2022-09-15T16:58:38.879Z,45.75
2022-09-15T17:01:06.571Z,46.36
2022-09-15T17:03:33.857Z,46.02
2022-09-15T17:06:02.100Z,46.15
2022-09-15T17:08:33.513Z,45.59
2022-09-15T17:11:04.629Z,45.56
2022-09-15T17:13:34.293Z,45.47
2022-09-15T17:16:02.206Z,45.28
2022-09-15T17:18:29.511Z,45.21
2022-09-15T17:20:56.773Z,45.11
2022-09-15T17:23:38.013Z,45.03
2022-09-15T17:26:14.772Z,44.88
2022-09-15T17:28:42.316Z,44.78
2022-09-15T17:31:18.940Z,45.04
2022-09-15T17:33:47.336Z,45.10
2022-09-15T17:36:14.894Z,45.11
2022-09-15T17:38:42.297Z,45.57
2022-09-15T17:41:21.483Z,45.26
2022-09-15T17:43:49.328Z,45.16
2022-09-15T17:46:16.755Z,45.63
2022-09-15T17:48:43.738Z,45.41
2022-09-15T17:51:17.223Z,45.88
2022-09-15T17:53:46.534Z,46.07
2022-09-15T17:56:13.437Z,46.01
2022-09-15T17:58:41.422Z,46.00
2022-09-15T18:01:11.338Z,46.24
2022-09-15T18:03:38.536Z,46.13
2022-09-15T18:06:08.267Z,46.54
2022-09-15T18:08:36.390Z,46.62
2022-09-15T18:11:05.459Z,47.09
2022-09-15T18:13:32.385Z,46.70
2022-09-15T18:16:12.239Z,47.42
2022-09-15T18:18:40.571Z,47.41
2022-09-15T18:21:10.428Z,47.58
2022-09-15T18:23:38.012Z,47.19
2022-09-15T18:26:05.035Z,47.38
2022-09-15T18:28:31.903Z,47.58
2022-09-15T18:30:58.807Z,47.82
2022-09-15T18:33:26.306Z,47.40
2022-09-15T18:35:58.785Z,48.20
2022-09-15T18:38:26.631Z,48.29
2022-09-15T18:40:55.935Z,48.32
2022-09-15T18:43:25.356Z,47.97
2022-09-15T18:45:55.056Z,48.43
2022-09-15T18:48:22.021Z,49.01
2022-09-15T18:50:48.926Z,49.21
2022-09-15T18:53:15.835Z,49.15
2022-09-15T18:55:43.725Z,49.63
2022-09-15T18:58:11.523Z,49.71
2022-09-15T19:00:38.427Z,50.39
2022-09-15T19:03:09.597Z,50.89
2022-09-15T19:05:37.007Z,50.85
2022-09-15T19:08:04.520Z,50.88
2022-09-15T19:10:31.432Z,51.36
2022-09-15T19:12:58.314Z,51.65
2022-09-15T19:15:25.190Z,51.79
2022-09-15T19:17:52.539Z,51.98
2022-09-15T19:20:19.614Z,52.26
2022-09-15T19:22:47.426Z,52.25
2022-09-15T19:25:15.372Z,52.58
2022-09-15T19:27:43.020Z,53.22
2022-09-15T19:30:11.139Z,53.12
2022-09-15T19:32:39.200Z,53.21
2022-09-15T19:35:07.833Z,53.57
2022-09-15T19:37:38.596Z,53.64
2022-09-15T19:40:09.578Z,54.13
2022-09-15T19:42:38.562Z,54.41
2022-09-15T19:45:07.250Z,54.31
2022-09-15T19:47:34.667Z,54.61
2022-09-15T19:50:01.655Z,54.82
2022-09-15T19:52:28.759Z,55.09
2022-09-15T19:54:55.640Z,55.85
2022-09-15T19:57:22.590Z,56.12
2022-09-15T19:59:50.219Z,56.18
2022-09-15T20:02:17.234Z,56.31
2022-09-15T20:04:44.524Z,56.16
2022-09-15T20:07:12.472Z,56.21
2022-09-15T20:09:39.421Z,56.18
2022-09-15T20:12:06.476Z,56.31
2022-09-15T20:14:33.441Z,56.45
2022-09-15T20:17:01.380Z,56.58
2022-09-15T20:19:29.411Z,56.63
2022-09-15T20:21:56.443Z,56.55
2022-09-15T20:24:24.070Z,56.67
2022-09-15T20:26:52.147Z,56.77
2022-09-15T20:29:20.230Z,56.90
2022-09-15T20:31:48.269Z,56.84
2022-09-15T20:34:15.863Z,56.78
2022-09-15T20:36:43.517Z,57.14
2022-09-15T20:39:14.564Z,57.02
2022-09-15T20:41:46.135Z,57.37
2022-09-15T20:44:13.918Z,57.73
2022-09-15T20:46:41.092Z,57.58
2022-09-15T20:49:09.144Z,57.63
2022-09-15T20:51:36.186Z,57.54
2022-09-15T20:54:04.256Z,58.09
2022-09-15T20:56:35.013Z,58.07
2022-09-15T20:59:03.561Z,58.23
2022-09-15T21:01:36.608Z,58.34
2022-09-15T21:04:05.231Z,58.57
2022-09-15T21:06:32.820Z,58.36
2022-09-15T21:09:00.346Z,58.69
2022-09-15T21:11:29.589Z,58.62
2022-09-15T21:13:57.582Z,58.67
2022-09-15T21:16:27.885Z,58.86
2022-09-15T21:18:57.233Z,58.77
2022-09-15T21:21:30.580Z,59.00
2022-09-15T21:24:04.277Z,58.85
2022-09-15T21:27:00.697Z,58.90
2022-09-15T21:29:28.905Z,58.76
2022-09-15T21:31:55.935Z,58.81
2022-09-15T21:34:23.227Z,59.01
2022-09-15T21:36:53.472Z,59.04
2022-09-15T21:39:20.461Z,58.81
2022-09-15T21:41:47.367Z,58.72
2022-09-15T21:44:14.279Z,58.74
2022-09-15T21:46:41.154Z,58.91
2022-09-15T21:49:08.289Z,58.88
2022-09-15T21:51:35.363Z,58.92
2022-09-15T21:54:02.245Z,58.44
2022-09-15T21:56:30.062Z,58.50
2022-09-15T21:58:57.430Z,58.62
2022-09-15T22:01:30.188Z,58.47
2022-09-15T22:04:08.521Z,58.25
2022-09-15T22:06:40.851Z,58.21
2022-09-15T22:09:14.842Z,58.29
2022-09-15T22:11:42.029Z,57.88
2022-09-15T22:14:09.884Z,58.00
2022-09-15T22:16:39.211Z,57.92
2022-09-15T22:19:07.655Z,58.05
2022-09-15T22:21:36.837Z,57.93
2022-09-15T22:24:07.114Z,57.98
2022-09-15T22:26:37.282Z,57.82
2022-09-15T22:29:05.460Z,57.93
2022-09-15T22:31:33.183Z,57.91
2022-09-15T22:34:00.113Z,57.91
2022-09-15T22:36:30.319Z,58.00
2022-09-15T22:39:05.531Z,57.85
2022-09-15T22:41:36.278Z,57.77
2022-09-15T22:44:04.649Z,57.63
2022-09-15T22:46:32.299Z,57.88
2022-09-15T22:48:59.974Z,57.60
2022-09-15T22:51:26.882Z,57.67
2022-09-15T22:53:57.264Z,57.43
2022-09-15T22:56:26.743Z,57.55
2022-09-15T22:58:54.798Z,57.57
2022-09-15T23:01:25.255Z,57.29
2022-09-15T23:03:55.709Z,57.37
2022-09-15T23:06:24.237Z,57.58
2022-09-15T23:09:07.112Z,57.51
2022-09-15T23:11:35.040Z,57.54
2022-09-15T23:14:02.603Z,57.49
2022-09-15T23:16:30.992Z,57.57
2022-09-15T23:18:58.851Z,57.16
2022-09-15T23:21:26.265Z,57.59
2022-09-15T23:23:54.400Z,57.57
2022-09-15T23:26:23.728Z,57.63
2022-09-15T23:28:51.012Z,57.61
2022-09-15T23:31:18.917Z,57.62
2022-09-15T23:33:46.227Z,57.68
2022-09-15T23:36:16.269Z,57.74
2022-09-15T23:38:45.167Z,57.84
2022-09-15T23:41:16.737Z,57.63
2022-09-15T23:43:44.048Z,57.64
2022-09-15T23:46:11.235Z,57.74
2022-09-15T23:48:38.502Z,57.76
2022-09-15T23:51:05.593Z,57.83
2022-09-15T23:53:32.661Z,57.90
2022-09-15T23:56:00.236Z,58.03
2022-09-15T23:58:27.755Z,58.12
